Time;durP1;ratioP1;P1;durP2;ratioP2;P2;SDS_P1;SDS_P2;PMS_P1;PMS_P2;Temp;Humidity;BMP_temperature;BMP_pressure;BME280_temperature;BME280_humidity;BME280_pressure;Samples;Min_cycle;Max_cycle;Signal;HPM_P1;HPM_P2
2019/08/05 00:02:03;;;;;;;7.9;4.7;;;;;;;18.48;70.2002;959.5731;;;;
2019/08/05 00:04:23;;;;;;;7.5;5;;;;;;;18.5;69.26563;959.6028;;;;
2019/08/05 00:06:48;;;;;;;8.6;5.2;;;;;;;18.49;68.93652;959.5552;;;;
2019/08/05 00:09:13;;;;;;;11.7;5.5;;;;;;;18.39;69.72949;959.6072;;;;
2019/08/05 00:11:38;;;;;;;9.9;5.2;;;;;;;18.34;70.16699;959.6227;;;;
2019/08/05 00:14:03;;;;;;;11.6;5.3;;;;;;;18.41;70.30664;959.6336;;;;
2019/08/05 00:16:28;;;;;;;9.7;5.4;;;;;;;18.3;69.15234;959.6873;;;;
2019/08/05 00:18:53;;;;;;;11.3;5.1;;;;;;;18.36;68.7998;959.718;;;;
2019/08/05 00:21:18;;;;;;;8.5;5.1;;;;;;;18.41;66.47461;959.7277;;;;
2019/08/05 00:23:49;;;;;;;7.7;4.9;;;;;;;18.71;64.28125;959.7008;;;;
2019/08/05 00:26:08;;;;;;;8.6;5.1;;;;;;;18.6;66.6084;959.6436;;;;
2019/08/05 00:28:33;;;;;;;6.4;4.9;;;;;;;18.5;66.3125;959.6028;;;;
2019/08/05 00:30:59;;;;;;;9.4;5.8;;;;;;;18.39;67.63086;959.5958;;;;
2019/08/05 00:33:24;;;;;;;9.1;5.2;;;;;;;18.4;68.47852;959.5239;;;;
2019/08/05 00:35:49;;;;;;;8;5.1;;;;;;;18.35;67.88379;959.4955;;;;
2019/08/05 00:38:15;;;;;;;8.3;4.8;;;;;;;18.35;67.47363;959.4023;;;;
2019/08/05 00:40:40;;;;;;;6.7;5;;;;;;;18.39;66.49512;959.3505;;;;
2019/08/05 00:43:05;;;;;;;10.4;5.1;;;;;;;18.32;67.29395;959.3737;;;;
2019/08/05 00:45:31;;;;;;;7.9;4.7;;;;;;;18.35;66.36133;959.375;;;;
2019/08/05 00:47:56;;;;;;;6.7;4.5;;;;;;;18.3;67.11426;959.3962;;;;
2019/08/05 00:50:21;;;;;;;7.1;4.5;;;;;;;18.31;66.27051;959.3878;;;;
2019/08/05 00:52:46;;;;;;;9.4;5.5;;;;;;;18.36;66.67871;959.3822;;;;
2019/08/05 00:55:11;;;;;;;7.4;5.1;;;;;;;18.29;66.33984;959.365;;;;
2019/08/05 00:57:36;;;;;;;6.2;4.9;;;;;;;18.24;67.81934;959.462;;;;
2019/08/05 01:00:02;;;;;;;6.5;4.9;;;;;;;18.16;67.87891;959.4861;;;;
2019/08/05 01:02:27;;;;;;;8;5;;;;;;;18.25;65.74902;959.4777;;;;
2019/08/05 01:04:52;;;;;;;9.1;5.2;;;;;;;18.3;66.2002;959.463;;;;
2019/08/05 01:07:17;;;;;;;8.1;5.5;;;;;;;18.39;65.34668;959.4511;;;;
2019/08/05 01:09:43;;;;;;;7.6;5.2;;;;;;;18.34;65.55078;959.4445;;;;
2019/08/05 01:12:08;;;;;;;7;5.1;;;;;;;18.44;66.34961;959.4219;;;;
2019/08/05 01:14:33;;;;;;;6.8;5.5;;;;;;;18.27;66.79395;959.3883;;;;
2019/08/05 01:16:59;;;;;;;6.2;5.6;;;;;;;18.31;66.50488;959.4241;;;;
2019/08/05 01:19:24;;;;;;;7.5;5.6;;;;;;;18.24;66.20313;959.4777;;;;
2019/08/05 01:21:49;;;;;;;8.3;5.6;;;;;;;18.16;67.45703;959.478;;;;
2019/08/05 01:24:14;;;;;;;7.5;5.8;;;;;;;18.12;65.86914;959.413;;;;
2019/08/05 01:26:39;;;;;;;6.3;5.4;;;;;;;18.29;65.46094;959.3815;;;;
2019/08/05 01:29:04;;;;;;;7.1;5.3;;;;;;;18.24;66.48438;959.4341;;;;
2019/08/05 01:31:29;;;;;;;5.7;5.2;;;;;;;18.19;66.06641;959.3734;;;;
2019/08/05 01:33:54;;;;;;;6.6;5.9;;;;;;;18.12;66.37305;959.361;;;;
2019/08/05 01:36:19;;;;;;;6.2;5.6;;;;;;;18.21;66.7959;959.3197;;;;
2019/08/05 01:38:44;;;;;;;6.4;5.8;;;;;;;18.19;67.19141;959.358;;;;
2019/08/05 01:41:15;;;;;;;7.5;5.8;;;;;;;18.13;66.77246;959.3562;;;;
2019/08/05 01:43:48;;;;;;;7.9;5.7;;;;;;;18.14;67.08984;959.3494;;;;
2019/08/05 01:46:20;;;;;;;7.1;5.6;;;;;;;18.05;67.49805;959.3281;;;;
2019/08/05 01:48:26;;;;;;;6.2;5.6;;;;;;;18.08;67.37402;959.3276;;;;
2019/08/05 01:50:50;;;;;;;8.9;6.1;;;;;;;18.11;67.14453;959.2911;;;;
2019/08/05 01:53:15;;;;;;;7.5;5.5;;;;;;;18.2;66.33789;959.2389;;;;
2019/08/05 01:55:40;;;;;;;7.6;5.3;;;;;;;18.01;66.66113;959.2378;;;;
2019/08/05 01:58:05;;;;;;;7.1;6;;;;;;;17.98;66.94824;959.225;;;;
2019/08/05 02:00:30;;;;;;;6.6;5.7;;;;;;;17.92;67.74609;959.2683;;;;
2019/08/05 02:02:55;;;;;;;6.8;5.6;;;;;;;17.93;66.11035;959.1677;;;;
2019/08/05 02:05:21;;;;;;;7.7;5.2;;;;;;;17.87;66.99023;959.1584;;;;
2019/08/05 02:07:46;;;;;;;6;5.1;;;;;;;17.87;67.24902;959.1575;;;;
2019/08/05 02:10:11;;;;;;;7;5.2;;;;;;;17.95;66.75684;959.123;;;;
2019/08/05 02:12:36;;;;;;;6.1;5.5;;;;;;;17.96;67.83496;959.0865;;;;
2019/08/05 02:15:01;;;;;;;6;4.8;;;;;;;17.93;67.15234;959.0852;;;;
2019/08/05 02:17:26;;;;;;;5.7;5.2;;;;;;;17.81;67.96387;959.0502;;;;
2019/08/05 02:19:51;;;;;;;5.8;5.2;;;;;;;17.83;67.18359;958.9808;;;;
2019/08/05 02:22:16;;;;;;;6.1;5.3;;;;;;;17.87;67.78516;958.9292;;;;
2019/08/05 02:24:41;;;;;;;4.9;4.5;;;;;;;17.81;68.01074;958.9437;;;;
2019/08/05 02:27:06;;;;;;;5.9;5.3;;;;;;;17.78;68.24023;958.9508;;;;
2019/08/05 02:29:31;;;;;;;6;5.3;;;;;;;17.77;68.69531;959.0173;;;;
2019/08/05 02:31:57;;;;;;;6.6;4.9;;;;;;;17.92;66.95215;959.0137;;;;
2019/08/05 02:34:22;;;;;;;6;4.9;;;;;;;18.1;65.80762;959.0175;;;;
2019/08/05 02:36:47;;;;;;;5.6;5.1;;;;;;;17.92;67.39551;959.0588;;;;
2019/08/05 02:39:12;;;;;;;6.4;4.7;;;;;;;17.96;67.17969;958.9973;;;;
2019/08/05 02:41:37;;;;;;;5.9;4.7;;;;;;;17.98;67.87402;958.9989;;;;
2019/08/05 02:44:02;;;;;;;6.8;4.5;;;;;;;17.97;67.30957;959.0187;;;;
2019/08/05 02:46:27;;;;;;;5.4;4.9;;;;;;;17.85;68.18164;959.0909;;;;
2019/08/05 02:48:52;;;;;;;8.8;5.3;;;;;;;18.02;66.93164;959.1016;;;;
2019/08/05 02:51:18;;;;;;;6.1;4.8;;;;;;;18.02;67.08398;959.0709;;;;
2019/08/05 02:53:43;;;;;;;5.8;5.2;;;;;;;17.77;68.13477;959.1347;;;;
2019/08/05 02:56:09;;;;;;;6.2;5.5;;;;;;;17.63;69.74902;959.1291;;;;
2019/08/05 03:00:59;;;;;;;8;5.1;;;;;;;17.76;68.24902;959.103;;;;
2019/08/05 03:03:24;;;;;;;6.6;5.4;;;;;;;17.77;68.54492;959.166;;;;
2019/08/05 03:05:49;;;;;;;5.8;5.1;;;;;;;17.7;68.73047;959.1663;;;;
2019/08/05 03:08:14;;;;;;;6.2;5.3;;;;;;;17.77;68.4043;959.1578;;;;
2019/08/05 03:10:39;;;;;;;5.4;4.9;;;;;;;17.84;68.12012;959.1744;;;;
2019/08/05 03:13:04;;;;;;;5.8;4.9;;;;;;;17.77;68.94238;959.2122;;;;
2019/08/05 03:15:29;;;;;;;7.1;4.9;;;;;;;17.7;69;959.1877;;;;
2019/08/05 03:17:54;;;;;;;6.7;4.7;;;;;;;17.74;69.49707;959.1485;;;;
2019/08/05 03:20:19;;;;;;;5.8;4.9;;;;;;;17.63;69.71582;959.1331;;;;
2019/08/05 03:22:44;;;;;;;6.4;4.7;;;;;;;17.63;69.80762;959.0564;;;;
2019/08/05 03:25:10;;;;;;;6;5;;;;;;;17.59;70.64355;959.0675;;;;
2019/08/05 03:27:35;;;;;;;5.8;4.9;;;;;;;17.69;69.74707;959.075;;;;
2019/08/05 03:30:00;;;;;;;6.9;4.9;;;;;;;17.73;68.52441;959.0826;;;;
2019/08/05 03:32:25;;;;;;;5.2;4.7;;;;;;;17.77;69.46777;959.085;;;;
2019/08/05 03:34:51;;;;;;;5.7;4.9;;;;;;;17.69;69.18555;959.0502;;;;
2019/08/05 03:37:16;;;;;;;6.3;5;;;;;;;17.72;70.54688;959.0837;;;;
2019/08/05 03:39:41;;;;;;;6.2;4.4;;;;;;;17.74;70.18848;959.1215;;;;
2019/08/05 03:42:06;;;;;;;5.6;4.7;;;;;;;17.7;70.08789;959.1431;;;;
2019/08/05 03:44:31;;;;;;;5.2;4.7;;;;;;;17.63;70.7334;959.1545;;;;
2019/08/05 03:46:57;;;;;;;5.3;4.8;;;;;;;17.67;70.80859;959.1616;;;;
2019/08/05 03:49:22;;;;;;;7.1;5;;;;;;;17.66;70.74902;959.2153;;;;
2019/08/05 03:51:47;;;;;;;5.5;4.8;;;;;;;17.63;70.96387;959.1852;;;;
2019/08/05 03:54:12;;;;;;;5.4;4.9;;;;;;;17.65;70.69922;959.2128;;;;
2019/08/05 03:56:38;;;;;;;5.9;4.9;;;;;;;17.58;71.56641;959.2703;;;;
2019/08/05 03:59:03;;;;;;;5.1;4.6;;;;;;;17.71;69.76172;959.2701;;;;
2019/08/05 04:02:28;;;;;;;6.1;4.9;;;;;;;17.68;70.31934;959.2128;;;;
2019/08/05 04:04:53;;;;;;;6;5;;;;;;;17.68;70.62207;959.1531;;;;
2019/08/05 04:07:18;;;;;;;6.5;4.8;;;;;;;17.61;71.21875;959.1342;;;;
2019/08/05 04:09:44;;;;;;;6.2;5;;;;;;;17.52;71.62598;959.1877;;;;
2019/08/05 04:12:09;;;;;;;6;4.9;;;;;;;17.53;71.76855;959.2595;;;;
2019/08/05 04:14:34;;;;;;;6;4.6;;;;;;;17.55;71.31543;959.2573;;;;
2019/08/05 04:16:59;;;;;;;5.9;4.8;;;;;;;17.46;72.13184;959.2656;;;;
2019/08/05 04:19:25;;;;;;;5.9;4.7;;;;;;;17.52;71.56836;959.2502;;;;
2019/08/05 04:21:50;;;;;;;6.2;4.7;;;;;;;17.44;72.19824;959.2224;;;;
2019/08/05 04:24:15;;;;;;;7.7;4.9;;;;;;;17.51;71.9873;959.1903;;;;
2019/08/05 04:26:40;;;;;;;6.7;4.4;;;;;;;17.44;72.60742;959.2083;;;;
2019/08/05 04:29:05;;;;;;;5.4;4.7;;;;;;;17.39;74.05957;959.1386;;;;
2019/08/05 04:31:30;;;;;;;5.5;4.8;;;;;;;17.51;72.05762;959.1046;;;;
2019/08/05 04:33:55;;;;;;;6.1;4.9;;;;;;;17.44;72.6543;959.1256;;;;
2019/08/05 04:36:20;;;;;;;5.6;5;;;;;;;17.36;72.75781;959.1825;;;;
2019/08/05 04:38:45;;;;;;;7.4;4.9;;;;;;;17.45;73.05469;959.1594;;;;
2019/08/05 04:41:11;;;;;;;8.6;5.2;;;;;;;17.56;71.35352;959.1364;;;;
2019/08/05 04:43:36;;;;;;;6.3;5.3;;;;;;;17.54;71.20801;959.1892;;;;
2019/08/05 04:46:01;;;;;;;7.7;5.5;;;;;;;17.31;73.27441;959.1242;;;;
2019/08/05 04:48:26;;;;;;;6.7;5.6;;;;;;;17.27;73.66602;959.1395;;;;
2019/08/05 04:50:51;;;;;;;8.7;5.6;;;;;;;17.45;72.31641;959.2222;;;;
2019/08/05 04:53:16;;;;;;;6.6;5.1;;;;;;;17.59;71.90723;959.2285;;;;
2019/08/05 04:55:41;;;;;;;5.9;5.3;;;;;;;17.61;72.42285;959.1984;;;;
2019/08/05 04:58:06;;;;;;;6;5;;;;;;;17.65;71.51855;959.1867;;;;
2019/08/05 05:00:31;;;;;;;6.6;5.1;;;;;;;17.64;70.70996;959.2064;;;;
2019/08/05 05:02:56;;;;;;;6.2;5.3;;;;;;;17.72;70.52344;959.2908;;;;
2019/08/05 05:05:21;;;;;;;5.1;4.6;;;;;;;17.8;70.33887;959.2342;;;;
2019/08/05 05:07:47;;;;;;;6.3;4.9;;;;;;;17.77;71.1543;959.288;;;;
2019/08/05 05:10:12;;;;;;;7.5;5;;;;;;;17.74;70.30566;959.2509;;;;
2019/08/05 05:12:37;;;;;;;6.1;4.7;;;;;;;17.85;70.92969;959.2559;;;;
2019/08/05 05:15:02;;;;;;;5.2;4.7;;;;;;;17.93;70.84961;959.2823;;;;
2019/08/05 05:17:27;;;;;;;5.8;4.8;;;;;;;18;70.72168;959.2715;;;;
2019/08/05 05:19:52;;;;;;;5.7;4.5;;;;;;;17.96;70.17578;959.3464;;;;
2019/08/05 05:22:17;;;;;;;5.2;4.4;;;;;;;18.12;69.20703;959.3422;;;;
2019/08/05 05:24:42;;;;;;;6.6;4.8;;;;;;;18.15;68.28613;959.3764;;;;
2019/08/05 05:27:07;;;;;;;8;4.8;;;;;;;18.13;68.20117;959.3833;;;;
2019/08/05 05:29:33;;;;;;;7.2;5;;;;;;;18.12;68.58594;959.4294;;;;
2019/08/05 05:31:58;;;;;;;5.3;4.5;;;;;;;18.3;67.95801;959.4415;;;;
2019/08/05 05:34:30;;;;;;;6.4;4.7;;;;;;;18.36;68.18848;959.4137;;;;
2019/08/05 05:36:55;;;;;;;6.8;4.8;;;;;;;18.45;67.25488;959.4695;;;;
2019/08/05 05:39:14;;;;;;;7.3;4.6;;;;;;;18.57;67.16699;959.5184;;;;
2019/08/05 05:41:38;;;;;;;6.9;4.6;;;;;;;18.62;66.14258;959.565;;;;
2019/08/05 05:44:04;;;;;;;5.5;4.4;;;;;;;18.71;66.90723;959.587;;;;
2019/08/05 05:46:29;;;;;;;6;3.9;;;;;;;18.85;65.14551;959.5053;;;;
2019/08/05 05:48:54;;;;;;;6.3;4.2;;;;;;;19.03;64.59668;959.5078;;;;
2019/08/05 05:51:20;;;;;;;9.8;4.2;;;;;;;19.07;65.66992;959.4503;;;;
2019/08/05 05:53:45;;;;;;;5.2;3.8;;;;;;;19.06;67.70996;959.4233;;;;
2019/08/05 05:56:10;;;;;;;5.9;3.9;;;;;;;19.17;65.08691;959.4436;;;;
2019/08/05 05:58:35;;;;;;;5.8;4.2;;;;;;;19.28;66.45313;959.4322;;;;
2019/08/05 06:01:00;;;;;;;7;4.3;;;;;;;19.35;67.40332;959.4459;;;;
2019/08/05 06:03:26;;;;;;;6.7;4.3;;;;;;;19.4;64.63965;959.451;;;;
2019/08/05 06:05:51;;;;;;;6.1;4.2;;;;;;;19.34;65.65234;959.3777;;;;
2019/08/05 06:08:16;;;;;;;5;3.9;;;;;;;19.34;67.07324;959.3901;;;;
2019/08/05 06:10:41;;;;;;;7;4.1;;;;;;;19.37;65.31738;959.3588;;;;
2019/08/05 06:13:07;;;;;;;5.9;3.8;;;;;;;19.33;65.48633;959.32;;;;
2019/08/05 06:15:32;;;;;;;5.7;4;;;;;;;19.56;63.12402;959.2772;;;;
2019/08/05 06:17:57;;;;;;;5.5;4.3;;;;;;;19.54;64.83594;959.3018;;;;
2019/08/05 06:20:22;;;;;;;6.1;4.3;;;;;;;19.55;64.69727;959.2849;;;;
2019/08/05 06:22:47;;;;;;;6.8;3.8;;;;;;;19.49;65.89844;959.2314;;;;
2019/08/05 06:25:12;;;;;;;7.5;4;;;;;;;19.5;65.65332;959.199;;;;
2019/08/05 06:27:38;;;;;;;7.2;3.9;;;;;;;19.42;67.12109;959.2036;;;;
2019/08/05 06:30:03;;;;;;;5.9;4.3;;;;;;;19.4;66.38965;959.1931;;;;
2019/08/05 06:32:28;;;;;;;6.2;4.9;;;;;;;19.45;65.50391;959.2413;;;;
2019/08/05 06:34:53;;;;;;;6.7;4.7;;;;;;;19.61;65.13965;959.2004;;;;
2019/08/05 06:37:18;;;;;;;7;4.6;;;;;;;19.57;65.62793;959.1688;;;;
2019/08/05 06:39:43;;;;;;;6.2;4.4;;;;;;;19.6;66.53711;959.1312;;;;
2019/08/05 06:42:08;;;;;;;6.6;4.6;;;;;;;19.67;66.34766;959.2137;;;;
2019/08/05 06:44:33;;;;;;;7.2;4.2;;;;;;;19.75;65.85449;959.1827;;;;
2019/08/05 06:46:58;;;;;;;5.1;4.2;;;;;;;19.6;67.66504;959.133;;;;
2019/08/05 06:49:23;;;;;;;5.9;4.3;;;;;;;19.81;66.15625;959.1875;;;;
2019/08/05 06:51:49;;;;;;;5.5;4.2;;;;;;;19.91;64.00879;959.1863;;;;
2019/08/05 06:54:14;;;;;;;5.1;4;;;;;;;19.93;65.24609;959.1795;;;;
2019/08/05 06:56:39;;;;;;;9.3;4.9;;;;;;;19.93;64.58789;959.1274;;;;
2019/08/05 06:59:04;;;;;;;6.9;4.5;;;;;;;19.88;65.875;959.1439;;;;
2019/08/05 07:01:29;;;;;;;7.8;3.8;;;;;;;20.07;64.58496;959.1287;;;;
2019/08/05 07:03:54;;;;;;;8.1;4;;;;;;;19.97;64.55762;959.1879;;;;
2019/08/05 07:08:44;;;;;;;9.8;4;;;;;;;19.88;66.61523;959.1819;;;;
2019/08/05 07:11:10;;;;;;;6.1;3.8;;;;;;;19.95;67.02441;959.1559;;;;
2019/08/05 07:13:34;;;;;;;6.7;4.1;;;;;;;20;66.05566;959.2079;;;;
2019/08/05 07:15:59;;;;;;;9.9;4.1;;;;;;;19.87;65.21387;959.2782;;;;
2019/08/05 07:18:24;;;;;;;8;4.3;;;;;;;19.79;64.76855;959.3174;;;;
2019/08/05 07:20:50;;;;;;;5.9;3.9;;;;;;;19.82;65.72266;959.2402;;;;
2019/08/05 07:23:15;;;;;;;6.8;3.8;;;;;;;19.86;65.58887;959.2369;;;;
2019/08/05 07:25:40;;;;;;;7;4.1;;;;;;;19.9;68.01758;959.2263;;;;
2019/08/05 07:28:40;;;;;;;;;;;;;;;;;;;;;
2019/08/05 07:31:15;;;;;;;5.4;4;;;;;;;20.23;66.45508;959.2269;;;;
2019/08/05 07:33:39;;;;;;;6.1;3.8;;;;;;;20.38;64.65527;959.218;;;;
2019/08/05 07:36:11;;;;;;;7.3;4.1;;;;;;;20.41;63.8457;959.22;;;;
2019/08/05 07:38:43;;;;;;;7.9;4;;;;;;;20.35;65.33203;959.1697;;;;
2019/08/05 07:41:18;;;;;;;8;4.2;;;;;;;20.45;64.72168;959.2001;;;;
2019/08/05 07:43:48;;;;;;;7.1;4.2;;;;;;;20.43;65.19141;959.2003;;;;
2019/08/05 07:46:20;;;;;;;6.7;4.1;;;;;;;20.57;65.59961;959.2029;;;;
2019/08/05 07:48:38;;;;;;;6.7;4.2;;;;;;;20.76;64.40332;959.1138;;;;
2019/08/05 07:53:34;;;;;;;5.3;3.7;;;;;;;21.11;63.08691;959.1719;;;;
2019/08/05 07:55:58;;;;;;;6.8;3.5;;;;;;;21.08;62.64551;959.1926;;;;
2019/08/05 08:00:56;;;;;;;6.8;3.6;;;;;;;21.05;63.18359;959.1932;;;;
2019/08/05 08:03:21;;;;;;;4;3.6;;;;;;;21.16;63.69531;959.1817;;;;
2019/08/05 08:05:46;;;;;;;5.2;3.4;;;;;;;21.25;62.98828;959.0859;;;;
2019/08/05 08:08:11;;;;;;;4.9;3.7;;;;;;;21.18;63.0957;959.012;;;;
2019/08/05 08:10:36;;;;;;;5.3;3.7;;;;;;;21.21;62.75879;959.0074;;;;
2019/08/05 08:13:01;;;;;;;6.9;3.6;;;;;;;21.11;63.13379;958.9216;;;;
2019/08/05 08:15:26;;;;;;;8.2;3.9;;;;;;;21.21;63.96191;958.9478;;;;
2019/08/05 08:17:51;;;;;;;4.8;3.8;;;;;;;21.22;64.72949;958.9;;;;
2019/08/05 08:20:16;;;;;;;6.5;3.9;;;;;;;21.15;66.875;958.9945;;;;
2019/08/05 08:22:41;;;;;;;4.6;3.5;;;;;;;21.13;65.9541;959.1121;;;;
2019/08/05 08:25:07;;;;;;;5.7;3.7;;;;;;;21.04;67.43848;959.1694;;;;
2019/08/05 08:27:32;;;;;;;5.3;3.7;;;;;;;21.07;66.2041;959.2567;;;;
2019/08/05 08:29:57;;;;;;;6.4;3.7;;;;;;;21.35;64.13477;959.3588;;;;
2019/08/05 08:32:22;;;;;;;6.9;3.7;;;;;;;21.54;63.08887;959.3571;;;;
2019/08/05 08:34:47;;;;;;;4.3;3.3;;;;;;;21.51;63.36719;959.3348;;;;
2019/08/05 08:37:12;;;;;;;7.3;3.8;;;;;;;21.52;63.46387;959.2389;;;;
2019/08/05 08:39:38;;;;;;;5.5;3.5;;;;;;;21.62;64.11426;959.3011;;;;
2019/08/05 08:42:03;;;;;;;5;3.8;;;;;;;21.75;63.13184;959.2539;;;;
2019/08/05 08:44:28;;;;;;;5.8;3.5;;;;;;;21.86;64.99902;959.2495;;;;
2019/08/05 08:46:53;;;;;;;4.2;3.3;;;;;;;22.02;63.9375;959.2089;;;;
2019/08/05 08:49:18;;;;;;;4.2;3.5;;;;;;;22.08;60.81445;959.2073;;;;
2019/08/05 08:51:43;;;;;;;5.6;3.3;;;;;;;22;61.3584;959.2841;;;;
2019/08/05 08:54:09;;;;;;;5.3;3.3;;;;;;;22.37;59.73047;959.2827;;;;
2019/08/05 08:56:34;;;;;;;6.7;3.8;;;;;;;22.13;59.98145;959.3013;;;;
2019/08/05 08:58:59;;;;;;;4.4;3.4;;;;;;;22.29;59.77832;959.2419;;;;
2019/08/05 09:01:24;;;;;;;7.4;3.7;;;;;;;22.14;60.4209;959.2089;;;;
2019/08/05 09:03:49;;;;;;;5.1;3.4;;;;;;;22.22;59.75781;959.2127;;;;
2019/08/05 09:06:14;;;;;;;5.2;3.4;;;;;;;22.3;60.09961;959.2297;;;;
2019/08/05 09:08:39;;;;;;;5.1;3.4;;;;;;;22.32;60.43359;959.2533;;;;
2019/08/05 09:11:05;;;;;;;4.1;3.3;;;;;;;22.28;59.50586;959.2129;;;;
2019/08/05 09:13:30;;;;;;;4.6;3.1;;;;;;;22.32;59.84082;959.177;;;;
2019/08/05 09:15:55;;;;;;;4.6;3.4;;;;;;;22.4;59.17969;959.1953;;;;
2019/08/05 09:18:21;;;;;;;8.9;3.6;;;;;;;22.34;60.12891;959.1521;;;;
2019/08/05 09:20:46;;;;;;;4.1;3.5;;;;;;;22.48;59.24805;959.1735;;;;
2019/08/05 09:23:11;;;;;;;5.6;4.1;;;;;;;22.63;58.72363;959.1275;;;;
2019/08/05 09:25:36;;;;;;;7;4.5;;;;;;;22.69;58.51953;959.1273;;;;
2019/08/05 09:28:01;;;;;;;5.9;4.2;;;;;;;22.88;57.87109;959.1257;;;;
2019/08/05 09:30:26;;;;;;;6.1;4;;;;;;;23.11;57.62891;959.1099;;;;
2019/08/05 09:32:51;;;;;;;6;3.3;;;;;;;23.14;57.46582;959.1241;;;;
2019/08/05 09:35:16;;;;;;;5.5;3.7;;;;;;;23.02;57.95898;959.1194;;;;
2019/08/05 09:37:41;;;;;;;4.3;3.4;;;;;;;22.92;56.92871;959.1064;;;;
2019/08/05 09:40:06;;;;;;;6.1;3.6;;;;;;;22.87;57.66797;959.072;;;;
2019/08/05 09:42:31;;;;;;;5;3.5;;;;;;;23.24;56.3418;959.1158;;;;
2019/08/05 09:44:56;;;;;;;4.2;3.2;;;;;;;23.13;57.85449;959.0754;;;;
2019/08/05 09:47:22;;;;;;;4.9;3.7;;;;;;;23.12;57.8418;959.0541;;;;
2019/08/05 09:49:47;;;;;;;5.4;3.5;;;;;;;22.98;57.91895;959.0609;;;;
2019/08/05 09:52:12;;;;;;;3.8;3.4;;;;;;;23.12;57.13086;959.0648;;;;
2019/08/05 09:54:37;;;;;;;6.4;3.8;;;;;;;23.33;56.26855;959.0864;;;;
2019/08/05 09:57:02;;;;;;;8.2;3.7;;;;;;;23.21;56.01758;959.1017;;;;
2019/08/05 09:59:27;;;;;;;8.1;3.4;;;;;;;23.34;55.74902;959.1013;;;;
2019/08/05 10:02:02;;;;;;;5.8;3.3;;;;;;;23.42;55.66406;959.1542;;;;
2019/08/05 10:04:29;;;;;;;4.7;3.3;;;;;;;23.65;54.99316;959.1884;;;;
2019/08/05 10:06:42;;;;;;;6.1;3.3;;;;;;;23.81;54.68164;959.2134;;;;
2019/08/05 10:09:07;;;;;;;6.3;3.4;;;;;;;24.1;54.06445;959.2109;;;;
2019/08/05 10:11:32;;;;;;;6.4;3.5;;;;;;;24.03;54.73242;959.2065;;;;
2019/08/05 10:13:58;;;;;;;8.4;3;;;;;;;24.25;53.39355;959.17;;;;
2019/08/05 10:16:23;;;;;;;5.4;2.9;;;;;;;24.45;52.26465;959.1447;;;;
2019/08/05 10:18:48;;;;;;;5.7;3.3;;;;;;;24.32;54.19727;959.1116;;;;
2019/08/05 10:21:13;;;;;;;6.3;3.3;;;;;;;24.6;51.82031;959.055;;;;
2019/08/05 10:23:38;;;;;;;5.3;3;;;;;;;24.4;52.16309;959.0264;;;;
2019/08/05 10:26:04;;;;;;;5.8;3.1;;;;;;;24.47;50.7002;958.9681;;;;
2019/08/05 10:28:29;;;;;;;4;3.1;;;;;;;24.48;51.12793;958.9495;;;;
2019/08/05 10:30:54;;;;;;;4.8;3.1;;;;;;;24.5;52.06934;958.9313;;;;
2019/08/05 10:33:19;;;;;;;5.1;3.1;;;;;;;24.36;51.68457;958.9794;;;;
2019/08/05 10:35:44;;;;;;;4.6;3.1;;;;;;;24.42;51.47754;958.9642;;;;
2019/08/05 10:38:10;;;;;;;4;2.9;;;;;;;24.47;50.92578;958.9191;;;;
2019/08/05 10:40:35;;;;;;;4.8;3;;;;;;;24.41;50.8584;958.8976;;;;
2019/08/05 10:43:00;;;;;;;5;3.2;;;;;;;24.34;51.41016;958.8408;;;;
2019/08/05 10:45:25;;;;;;;3.9;2.9;;;;;;;24.22;50.90918;958.8044;;;;
2019/08/05 10:47:51;;;;;;;5.6;3.8;;;;;;;24.05;52.0166;958.7506;;;;
2019/08/05 10:50:16;;;;;;;5.4;3.5;;;;;;;23.91;53.43555;958.7648;;;;
2019/08/05 10:52:41;;;;;;;3.8;3.1;;;;;;;24.01;53.28125;958.707;;;;
2019/08/05 10:55:06;;;;;;;5.4;3.2;;;;;;;23.98;52.05566;958.6589;;;;
2019/08/05 10:57:31;;;;;;;6;3.1;;;;;;;24.27;50.56934;958.6577;;;;
2019/08/05 10:59:57;;;;;;;4.5;3.4;;;;;;;24.45;50.56738;958.652;;;;
2019/08/05 11:02:22;;;;;;;4.4;3.1;;;;;;;24.37;50.33203;958.6256;;;;
2019/08/05 11:04:47;;;;;;;5.6;3.1;;;;;;;24.67;50.53223;958.5789;;;;
2019/08/05 11:07:12;;;;;;;3.5;3.1;;;;;;;24.76;49.53223;958.558;;;;
2019/08/05 11:09:37;;;;;;;4.9;3.1;;;;;;;24.76;50.0791;958.5139;;;;
2019/08/05 11:12:03;;;;;;;4;2.9;;;;;;;25.05;49.04004;958.509;;;;
2019/08/05 11:14:28;;;;;;;3.9;3;;;;;;;24.87;48.47363;958.4863;;;;
2019/08/05 11:16:53;;;;;;;4.1;2.7;;;;;;;24.83;49.94531;958.4419;;;;
2019/08/05 11:19:18;;;;;;;4.8;3.1;;;;;;;24.9;50.42773;958.3731;;;;
2019/08/05 11:21:43;;;;;;;5.9;3.4;;;;;;;24.86;49.59082;958.3641;;;;
2019/08/05 11:24:08;;;;;;;4.7;2.9;;;;;;;24.86;49.11621;958.3599;;;;
2019/08/05 11:26:34;;;;;;;5.5;3;;;;;;;24.77;48.75977;958.3184;;;;
2019/08/05 11:28:59;;;;;;;5.1;3.2;;;;;;;24.9;49.13184;958.3467;;;;
2019/08/05 11:31:24;;;;;;;6.2;3.4;;;;;;;24.64;49.60254;958.3541;;;;
2019/08/05 11:33:49;;;;;;;5.7;3.3;;;;;;;24.87;49.56738;958.3455;;;;
2019/08/05 11:36:14;;;;;;;3.7;3;;;;;;;25.18;49.76855;958.3357;;;;
2019/08/05 11:38:39;;;;;;;5.1;3.2;;;;;;;25.2;49.56836;958.3119;;;;
2019/08/05 11:41:04;;;;;;;6;3;;;;;;;24.99;49.98633;958.2813;;;;
2019/08/05 11:43:30;;;;;;;6.1;2.8;;;;;;;25.19;48.54492;958.3254;;;;
2019/08/05 11:45:55;;;;;;;5.2;2.8;;;;;;;25.4;48.43652;958.2385;;;;
2019/08/05 11:48:20;;;;;;;5.7;2.9;;;;;;;25.5;49.10254;958.2414;;;;
2019/08/05 11:50:45;;;;;;;5.7;3;;;;;;;25.61;47.58984;958.2307;;;;
2019/08/05 11:53:10;;;;;;;5;2.9;;;;;;;25.67;48.22656;958.2103;;;;
2019/08/05 11:55:35;;;;;;;3.8;2.8;;;;;;;25.6;46.85059;958.2162;;;;
2019/08/05 11:58:01;;;;;;;3;2.6;;;;;;;25.75;46.98535;958.1934;;;;
2019/08/05 12:00:26;;;;;;;5.4;2.7;;;;;;;25.97;47.60449;958.0815;;;;
2019/08/05 12:02:51;;;;;;;3.6;2.7;;;;;;;26;47.02344;958.1537;;;;
2019/08/05 12:05:16;;;;;;;5.2;2.6;;;;;;;26.29;47.25684;958.1555;;;;
2019/08/05 12:07:41;;;;;;;3.3;2.8;;;;;;;26.55;44.86133;958.0873;;;;
2019/08/05 12:10:06;;;;;;;4;2.5;;;;;;;26.56;44.27734;957.9888;;;;
2019/08/05 12:12:32;;;;;;;3.1;2.4;;;;;;;26.15;45.14258;957.949;;;;
2019/08/05 12:14:57;;;;;;;3.5;2.3;;;;;;;26.26;45.20215;957.9563;;;;
2019/08/05 12:17:22;;;;;;;4.9;2.8;;;;;;;26.31;45.38574;957.9624;;;;
2019/08/05 12:19:47;;;;;;;3.4;2.5;;;;;;;26.16;45.60938;957.9236;;;;
2019/08/05 12:22:12;;;;;;;4.2;2.7;;;;;;;26.26;46.38184;957.9473;;;;
2019/08/05 12:24:38;;;;;;;3;2.7;;;;;;;26.43;46.2207;957.8441;;;;
2019/08/05 12:27:03;;;;;;;5.1;2.5;;;;;;;26.74;45.29785;957.8794;;;;
2019/08/05 12:29:28;;;;;;;4.6;3.1;;;;;;;26.84;45.49902;957.8546;;;;
2019/08/05 12:31:53;;;;;;;3;2.5;;;;;;;26.9;44.07227;957.866;;;;
2019/08/05 12:34:18;;;;;;;3.7;2.4;;;;;;;27.16;43.38086;957.8936;;;;
2019/08/05 12:36:44;;;;;;;5.1;2.7;;;;;;;26.92;43.82324;957.8498;;;;
2019/08/05 12:39:09;;;;;;;3.5;2.7;;;;;;;27.03;44.22754;957.8312;;;;
2019/08/05 12:41:34;;;;;;;3.5;2.6;;;;;;;27;44.09375;957.7776;;;;
2019/08/05 12:43:59;;;;;;;4.8;2.9;;;;;;;27.18;43.51367;957.7704;;;;
2019/08/05 12:46:24;;;;;;;5.3;2.8;;;;;;;27.34;43.35059;957.6981;;;;
2019/08/05 12:48:49;;;;;;;4.3;2.8;;;;;;;27.37;43.96289;957.694;;;;
2019/08/05 12:51:14;;;;;;;4;2.9;;;;;;;27.28;43.78613;957.6976;;;;
2019/08/05 12:53:39;;;;;;;4.1;2.6;;;;;;;27.4;45.28027;957.6633;;;;
2019/08/05 12:56:05;;;;;;;3.8;2.4;;;;;;;27.63;43.86914;957.6067;;;;
2019/08/05 12:58:30;;;;;;;5.1;2.8;;;;;;;27.87;43.52051;957.5842;;;;
2019/08/05 13:00:59;;;;;;;3.6;2.8;;;;;;;27.93;42.55762;957.5943;;;;
2019/08/05 13:03:24;;;;;;;4.2;2.7;;;;;;;27.69;43.15625;957.5208;;;;
2019/08/05 13:05:49;;;;;;;4.5;2.7;;;;;;;27.23;43.88965;957.5186;;;;
2019/08/05 13:08:14;;;;;;;4.8;2.8;;;;;;;27.44;43.93359;957.5542;;;;
2019/08/05 13:10:39;;;;;;;6.2;2.9;;;;;;;27.76;43.23535;957.4847;;;;
2019/08/05 13:13:04;;;;;;;4.6;2.7;;;;;;;28.09;41.4707;957.4339;;;;
2019/08/05 13:15:30;;;;;;;4.3;2.5;;;;;;;28.63;41.92676;957.4132;;;;
2019/08/05 13:17:55;;;;;;;4.3;2.7;;;;;;;28.33;42.63086;957.3632;;;;
2019/08/05 13:20:20;;;;;;;3.8;2.5;;;;;;;28.34;42.27148;957.4316;;;;
2019/08/05 13:22:45;;;;;;;3.6;2.5;;;;;;;28.14;41.61914;957.3733;;;;
2019/08/05 13:25:10;;;;;;;3.9;2.8;;;;;;;28.2;41.39648;957.2848;;;;
2019/08/05 13:27:35;;;;;;;2.8;2.4;;;;;;;27.96;43.1709;957.3118;;;;
2019/08/05 13:30:00;;;;;;;3;2.6;;;;;;;28.13;42.28809;957.3655;;;;
2019/08/05 13:32:25;;;;;;;4.3;2.5;;;;;;;28.04;42.5791;957.3641;;;;
2019/08/05 13:34:50;;;;;;;3.3;2.8;;;;;;;28.02;43.02051;957.3558;;;;
2019/08/05 13:37:15;;;;;;;4.8;2.7;;;;;;;27.85;42.46582;957.3059;;;;
2019/08/05 13:39:40;;;;;;;4;2.7;;;;;;;28.04;42.51953;957.3273;;;;
2019/08/05 13:42:05;;;;;;;3.9;2.5;;;;;;;28.1;43.93848;957.2991;;;;
2019/08/05 13:44:30;;;;;;;3.1;2.7;;;;;;;28.43;43.15625;957.2464;;;;
2019/08/05 13:46:56;;;;;;;4.6;2.7;;;;;;;28.43;41.80176;957.2675;;;;
2019/08/05 13:49:21;;;;;;;3.4;2.6;;;;;;;28.4;43.1416;957.2065;;;;
2019/08/05 13:51:46;;;;;;;4.4;2.5;;;;;;;28.24;44.79004;957.1863;;;;
2019/08/05 13:54:11;;;;;;;3.6;2.4;;;;;;;28.29;42.20801;957.2109;;;;
2019/08/05 13:56:37;;;;;;;5.6;2.7;;;;;;;28.19;43.17969;957.1992;;;;
2019/08/05 13:59:02;;;;;;;4;2.5;;;;;;;28.7;42.08984;957.2333;;;;
2019/08/05 14:01:28;;;;;;;3.2;2.3;;;;;;;28.88;42.875;957.1841;;;;
2019/08/05 14:03:53;;;;;;;4.2;2.7;;;;;;;28.34;42.99121;957.1415;;;;
2019/08/05 14:06:18;;;;;;;4.1;2.7;;;;;;;28.36;42.94531;957.1469;;;;
2019/08/05 14:08:43;;;;;;;3.9;2.7;;;;;;;28.31;41.98242;957.0681;;;;
2019/08/05 14:11:08;;;;;;;5.3;3.1;;;;;;;28.52;41.49805;956.9973;;;;
2019/08/05 14:13:33;;;;;;;4.4;2.7;;;;;;;28.56;41.44141;956.9808;;;;
2019/08/05 14:15:58;;;;;;;3.1;2.6;;;;;;;28.45;43.51758;956.9367;;;;
2019/08/05 14:18:24;;;;;;;4.4;2.6;;;;;;;28.46;43.9375;956.9411;;;;
2019/08/05 14:20:49;;;;;;;3.2;2.6;;;;;;;28.46;42.83496;956.9861;;;;
2019/08/05 14:23:14;;;;;;;3.2;2.7;;;;;;;28.22;43.00488;956.9558;;;;
2019/08/05 14:25:39;;;;;;;3.4;2.4;;;;;;;28.11;42.37109;956.9481;;;;
2019/08/05 14:28:04;;;;;;;5.8;2.5;;;;;;;28;43.68945;956.8901;;;;